FPO weather

Grand Bahama International Airport
Freeport, Freeport, Bahamas

Public forecast

Using degrees Celsius for public forecast. Weather courtesy of forecast.io.

METAR (pilot weather report)

Retrieved 2019/07/18 14:00 UTC (18 minutes ago):

MYGF 181400Z 14011KT 110V170 9999 FEW020CB SCT025TCU 31/24 A3010

TAF (pilot weather forecast)

Retrieved 2019/07/18 12:33 UTC (2 hours ago):

TAF TAF MYGF 181100Z 1812/1912 12006KT 9999 FEW018CB PROB30 TEMPO 1818/1822 15010KT 9999 SHRA FEW015CB SCT018 BKN200